createdAt,value
2022-10-10T00:01:31.928Z,15.07
2022-10-10T00:03:59.752Z,13.55
2022-10-10T00:06:32.490Z,11.40
2022-10-10T00:09:00.770Z,11.85
2022-10-10T00:11:28.274Z,12.55
2022-10-10T00:13:55.399Z,12.40
2022-10-10T00:16:22.452Z,9.77
2022-10-10T00:18:49.522Z,9.82
2022-10-10T00:21:16.669Z,10.05
2022-10-10T00:23:43.610Z,11.15
2022-10-10T00:26:13.723Z,11.18
2022-10-10T00:28:44.598Z,11.00
2022-10-10T00:31:11.706Z,10.75
2022-10-10T00:33:38.629Z,10.30
2022-10-10T00:36:07.257Z,10.05
2022-10-10T00:38:34.376Z,10.98
2022-10-10T00:41:02.091Z,11.95
2022-10-10T00:43:31.280Z,12.98
2022-10-10T00:45:58.454Z,12.13
2022-10-10T00:48:35.675Z,11.40
2022-10-10T00:51:20.676Z,10.93
2022-10-10T00:54:04.094Z,10.63
2022-10-10T00:56:50.680Z,10.23
2022-10-10T00:59:19.929Z,9.90
2022-10-10T01:01:47.306Z,10.40
2022-10-10T01:04:36.150Z,10.55
2022-10-10T01:07:12.600Z,9.98
2022-10-10T01:09:43.437Z,10.07
2022-10-10T01:12:33.616Z,11.20
2022-10-10T01:15:03.206Z,10.73
2022-10-10T01:17:38.309Z,9.93
2022-10-10T01:20:08.310Z,10.02
2022-10-10T01:23:09.028Z,10.93
2022-10-10T01:26:26.754Z,10.93
2022-10-10T01:29:03.371Z,9.70
2022-10-10T01:31:35.403Z,9.93
2022-10-10T01:34:59.836Z,9.80
2022-10-10T01:37:59.806Z,9.77
2022-10-10T01:40:53.772Z,10.48
2022-10-10T01:43:20.725Z,10.13
2022-10-10T01:45:51.871Z,11.05
2022-10-10T01:48:30.804Z,11.52
2022-10-10T01:51:33.214Z,12.05
2022-10-10T01:54:34.318Z,11.30
2022-10-10T01:57:06.890Z,12.07
2022-10-10T02:00:05.235Z,12.23
2022-10-10T02:02:56.799Z,12.57
2022-10-10T02:05:50.172Z,12.88
2022-10-10T02:08:40.839Z,12.85
2022-10-10T02:11:11.430Z,14.45
2022-10-10T02:14:15.923Z,14.35
2022-10-10T02:16:49.566Z,15.48
2022-10-10T02:19:21.199Z,15.23
2022-10-10T02:21:51.797Z,16.23
2022-10-10T02:24:22.368Z,15.27
2022-10-10T02:27:16.275Z,15.52
2022-10-10T02:29:45.462Z,16.70
2022-10-10T02:32:29.398Z,16.45
2022-10-10T02:35:03.251Z,16.92
2022-10-10T02:37:31.019Z,16.65
2022-10-10T02:40:02.964Z,17.45
2022-10-10T02:42:30.980Z,15.82
2022-10-10T02:44:58.348Z,16.98
2022-10-10T02:47:25.493Z,18.35
2022-10-10T02:49:52.453Z,16.42
2022-10-10T02:52:19.694Z,17.40
2022-10-10T02:54:46.996Z,15.75
2022-10-10T02:57:14.291Z,16.65
2022-10-10T02:59:41.724Z,17.88
2022-10-10T03:02:08.790Z,18.25
2022-10-10T03:04:36.598Z,19.20
2022-10-10T03:07:05.403Z,18.95
2022-10-10T03:09:33.478Z,19.60
2022-10-10T03:12:00.382Z,18.77
2022-10-10T03:14:27.349Z,19.58
2022-10-10T03:16:54.323Z,19.15
2022-10-10T03:19:21.236Z,19.17
2022-10-10T03:21:48.187Z,19.92
2022-10-10T03:24:15.912Z,20.30
2022-10-10T03:26:42.859Z,19.60
2022-10-10T03:29:09.848Z,19.48
2022-10-10T03:31:36.774Z,20.30
2022-10-10T03:34:03.716Z,19.25
2022-10-10T03:36:31.328Z,19.83
2022-10-10T03:38:58.247Z,20.02
2022-10-10T03:41:25.223Z,19.38
2022-10-10T03:43:52.204Z,20.10
2022-10-10T03:46:19.795Z,19.35
2022-10-10T03:48:47.222Z,19.52
2022-10-10T03:51:14.650Z,18.90
2022-10-10T03:53:41.807Z,17.48
2022-10-10T03:56:08.757Z,18.15
2022-10-10T03:58:35.794Z,18.15
2022-10-10T04:01:04.580Z,17.25
2022-10-10T04:03:31.953Z,17.52
2022-10-10T04:05:59.180Z,17.38
2022-10-10T04:08:26.653Z,17.70
2022-10-10T04:10:54.707Z,17.50
2022-10-10T04:13:22.683Z,16.00
2022-10-10T04:15:55.345Z,15.30
2022-10-10T04:18:23.266Z,15.05
2022-10-10T04:20:50.258Z,13.93
2022-10-10T04:23:17.330Z,13.95
2022-10-10T04:25:51.259Z,14.63
2022-10-10T04:28:19.063Z,14.40
2022-10-10T04:30:49.588Z,14.57
2022-10-10T04:33:16.542Z,14.07
2022-10-10T04:35:43.568Z,13.77
2022-10-10T04:38:10.454Z,14.35
2022-10-10T04:40:38.028Z,13.13
2022-10-10T04:43:05.098Z,12.98
2022-10-10T04:45:37.227Z,12.18
2022-10-10T04:48:05.003Z,11.60
2022-10-10T04:50:33.369Z,10.98
2022-10-10T04:53:00.328Z,11.73
2022-10-10T04:55:27.789Z,14.90
2022-10-10T04:57:54.744Z,13.32
2022-10-10T05:00:21.689Z,12.52
2022-10-10T05:02:49.013Z,12.50
2022-10-10T05:05:16.624Z,12.98
2022-10-10T05:07:43.552Z,14.43
2022-10-10T05:10:10.539Z,14.73
2022-10-10T05:12:37.444Z,14.93
2022-10-10T05:15:04.649Z,14.75
2022-10-10T05:17:31.552Z,13.93
2022-10-10T05:19:58.450Z,13.70
2022-10-10T05:22:25.498Z,13.38
2022-10-10T05:24:52.408Z,13.38
2022-10-10T05:27:19.362Z,13.73
2022-10-10T05:29:46.322Z,13.25
2022-10-10T05:32:13.322Z,14.05
2022-10-10T05:34:40.258Z,12.45
2022-10-10T05:37:07.205Z,13.52
2022-10-10T05:39:34.270Z,13.93
2022-10-10T05:42:01.575Z,12.95
2022-10-10T05:44:28.551Z,13.75
2022-10-10T05:46:55.485Z,15.30
2022-10-10T05:49:22.496Z,17.27
2022-10-10T05:51:49.502Z,19.98
2022-10-10T05:54:16.488Z,19.08
2022-10-10T05:56:43.690Z,18.45
2022-10-10T05:59:10.634Z,18.52
2022-10-10T06:01:40.134Z,19.40
2022-10-10T06:04:07.389Z,19.15
2022-10-10T06:06:34.328Z,19.63
2022-10-10T06:09:01.249Z,19.85
2022-10-10T06:11:29.235Z,19.73
2022-10-10T06:13:57.086Z,19.67
2022-10-10T06:16:26.824Z,19.40
2022-10-10T06:18:57.063Z,20.15
2022-10-10T06:21:25.758Z,21.15
2022-10-10T06:23:52.899Z,20.20
2022-10-10T06:26:19.980Z,20.52
2022-10-10T06:28:47.419Z,21.42
2022-10-10T06:31:15.169Z,20.70
2022-10-10T06:33:45.576Z,19.98
2022-10-10T06:36:15.036Z,20.15
2022-10-10T06:38:45.090Z,18.55
2022-10-10T06:41:12.999Z,18.85
2022-10-10T06:43:41.414Z,18.08
2022-10-10T06:46:09.634Z,17.50
2022-10-10T06:48:36.645Z,18.63
2022-10-10T06:51:12.922Z,17.52
2022-10-10T06:53:39.888Z,17.73
2022-10-10T06:56:06.871Z,17.48
2022-10-10T06:58:34.417Z,16.88
2022-10-10T07:01:04.446Z,17.80
2022-10-10T07:03:31.706Z,16.83
2022-10-10T07:06:02.322Z,16.90
2022-10-10T07:08:30.545Z,17.77
2022-10-10T07:10:57.520Z,16.40
2022-10-10T07:13:24.434Z,16.33
2022-10-10T07:15:51.317Z,15.82
2022-10-10T07:18:19.898Z,15.52
2022-10-10T07:20:47.112Z,14.93
2022-10-10T07:23:14.780Z,13.90
2022-10-10T07:25:44.398Z,14.30
2022-10-10T07:28:11.929Z,12.70
2022-10-10T07:30:44.897Z,13.73
2022-10-10T07:33:14.242Z,12.35
2022-10-10T07:35:41.988Z,12.73
2022-10-10T07:38:11.570Z,11.93
2022-10-10T07:40:41.489Z,12.23
2022-10-10T07:43:08.480Z,12.35
2022-10-10T07:45:37.152Z,12.20
2022-10-10T07:48:04.682Z,12.00
2022-10-10T07:50:31.636Z,10.93
2022-10-10T07:52:58.609Z,11.18
2022-10-10T07:55:25.806Z,10.93
2022-10-10T07:57:53.577Z,11.13
2022-10-10T08:00:20.952Z,10.45
2022-10-10T08:02:47.853Z,10.55
2022-10-10T08:05:14.865Z,10.80
2022-10-10T08:07:41.788Z,9.95
2022-10-10T08:10:09.861Z,9.82
2022-10-10T08:12:36.913Z,9.77
2022-10-10T08:15:06.311Z,9.93
2022-10-10T08:17:33.742Z,8.90
2022-10-10T08:20:00.682Z,9.48
2022-10-10T08:22:27.611Z,9.27
2022-10-10T08:24:54.544Z,9.80
2022-10-10T08:27:21.550Z,9.57
2022-10-10T08:29:48.488Z,9.63
2022-10-10T08:32:15.486Z,10.00
2022-10-10T08:34:42.561Z,9.00
2022-10-10T08:37:09.466Z,9.35
2022-10-10T08:39:36.452Z,9.38
2022-10-10T08:42:03.850Z,9.55
2022-10-10T08:44:41.146Z,9.25
2022-10-10T08:47:38.852Z,9.63
2022-10-10T08:50:16.842Z,9.60
2022-10-10T08:53:08.676Z,8.57
2022-10-10T08:55:40.738Z,8.20
2022-10-10T08:58:18.630Z,8.57
2022-10-10T09:00:53.075Z,8.60
2022-10-10T09:03:48.972Z,8.50
2022-10-10T09:06:33.900Z,9.32
2022-10-10T09:09:03.751Z,8.77
2022-10-10T09:11:36.312Z,8.23
2022-10-10T09:14:39.486Z,7.80
2022-10-10T09:17:54.655Z,7.55
2022-10-10T09:20:52.134Z,7.25
2022-10-10T09:23:47.092Z,7.90
2022-10-10T09:26:19.944Z,7.72
2022-10-10T09:29:22.271Z,7.82
2022-10-10T09:32:00.729Z,7.57
2022-10-10T09:34:37.314Z,6.72
2022-10-10T09:37:24.376Z,6.82
2022-10-10T09:40:30.140Z,6.93
2022-10-10T09:42:57.428Z,6.50
2022-10-10T09:45:43.885Z,6.63
2022-10-10T09:48:11.272Z,6.53
2022-10-10T09:50:41.767Z,6.63
2022-10-10T09:53:16.241Z,7.10
2022-10-10T09:55:46.001Z,6.25
2022-10-10T09:58:42.166Z,5.85
2022-10-10T10:01:27.361Z,5.82
2022-10-10T10:04:28.320Z,5.93
2022-10-10T10:07:18.227Z,5.68
2022-10-10T10:10:23.584Z,5.25
2022-10-10T10:12:52.092Z,5.22
2022-10-10T10:15:26.656Z,4.53
2022-10-10T10:18:38.874Z,4.80
2022-10-10T10:21:13.743Z,4.70
2022-10-10T10:23:51.684Z,4.60
2022-10-10T10:26:41.957Z,4.63
2022-10-10T10:29:27.733Z,4.78
2022-10-10T10:32:36.084Z,4.38
2022-10-10T10:35:28.371Z,5.00
2022-10-10T10:38:21.778Z,4.75
2022-10-10T10:41:08.107Z,4.55
2022-10-10T10:44:03.590Z,4.50
2022-10-10T10:47:32.605Z,4.60
2022-10-10T10:50:18.012Z,4.20
2022-10-10T10:53:15.563Z,4.78
2022-10-10T10:56:08.659Z,4.40
2022-10-10T11:00:26.380Z,4.40
2022-10-10T11:03:28.009Z,4.32
2022-10-10T11:06:49.122Z,4.03
2022-10-10T11:10:20.364Z,3.97
2022-10-10T11:13:19.452Z,3.90
2022-10-10T11:16:06.100Z,4.45
2022-10-10T11:18:50.823Z,4.60
2022-10-10T11:21:44.816Z,4.38
2022-10-10T11:24:27.386Z,4.32
2022-10-10T11:27:04.191Z,4.70
2022-10-10T11:29:54.216Z,4.57
2022-10-10T11:33:07.454Z,4.35
2022-10-10T11:36:18.328Z,3.87
2022-10-10T11:38:58.128Z,4.90
2022-10-10T11:41:41.681Z,4.43
2022-10-10T11:44:36.386Z,6.95
2022-10-10T11:47:25.890Z,4.63
2022-10-10T11:50:11.365Z,4.22
2022-10-10T11:53:04.906Z,5.35
2022-10-10T11:56:08.463Z,4.85
2022-10-10T11:58:44.628Z,5.03
2022-10-10T12:01:27.272Z,5.35
2022-10-10T12:03:54.569Z,4.93
2022-10-10T12:06:24.189Z,4.88
2022-10-10T12:09:00.146Z,4.80
2022-10-10T12:12:10.240Z,4.90
2022-10-10T12:14:43.998Z,4.60
2022-10-10T12:17:36.119Z,4.75
2022-10-10T12:20:25.757Z,5.28
2022-10-10T12:23:24.613Z,5.55
2022-10-10T12:25:51.580Z,4.93
2022-10-10T12:28:18.538Z,5.18
2022-10-10T12:30:58.668Z,4.55
2022-10-10T12:33:31.742Z,4.88
2022-10-10T12:36:21.382Z,5.20
2022-10-10T12:39:06.125Z,5.60
2022-10-10T12:41:56.855Z,5.22
2022-10-10T12:44:46.456Z,5.53
2022-10-10T12:47:16.046Z,5.00
2022-10-10T12:49:55.562Z,5.18
2022-10-10T12:52:35.880Z,5.07
2022-10-10T12:55:19.715Z,5.07
2022-10-10T12:57:49.950Z,4.95
2022-10-10T13:00:20.639Z,5.38
2022-10-10T13:02:55.159Z,6.05
2022-10-10T13:05:33.978Z,5.30
2022-10-10T13:08:08.319Z,4.63
2022-10-10T13:10:35.260Z,5.68
2022-10-10T13:13:20.409Z,5.03
2022-10-10T13:15:59.459Z,5.70
2022-10-10T13:18:40.876Z,5.20
2022-10-10T13:21:17.926Z,5.72
2022-10-10T13:26:49.901Z,5.35
2022-10-10T13:29:39.473Z,5.47
2022-10-10T13:32:17.670Z,5.57
2022-10-10T13:34:52.170Z,6.03
2022-10-10T13:37:20.808Z,5.60
2022-10-10T13:39:51.265Z,5.47
2022-10-10T13:42:35.012Z,5.95
2022-10-10T13:45:38.631Z,5.68
2022-10-10T13:48:17.671Z,5.50
2022-10-10T13:50:44.516Z,6.13
2022-10-10T13:53:30.408Z,5.72
2022-10-10T13:56:24.526Z,5.65
2022-10-10T13:59:00.710Z,5.95
2022-10-10T14:01:29.984Z,5.72
2022-10-10T14:04:05.853Z,6.20
2022-10-10T14:06:33.787Z,5.63
2022-10-10T14:09:39.602Z,6.43
2022-10-10T14:12:17.099Z,6.25
2022-10-10T14:14:49.473Z,6.25
2022-10-10T14:17:16.854Z,6.03
2022-10-10T14:19:46.461Z,6.18
2022-10-10T14:22:13.560Z,5.50
2022-10-10T14:24:40.555Z,5.88
2022-10-10T14:27:15.396Z,6.00
2022-10-10T14:29:42.943Z,6.32
2022-10-10T14:32:11.485Z,6.40
2022-10-10T14:34:38.873Z,6.45
2022-10-10T14:37:10.561Z,6.68
2022-10-10T14:39:37.460Z,6.38
2022-10-10T14:42:12.938Z,6.15
2022-10-10T14:44:40.127Z,6.60
2022-10-10T14:47:07.303Z,6.57
2022-10-10T14:49:34.255Z,6.53
2022-10-10T14:52:01.634Z,6.88
2022-10-10T14:54:28.595Z,6.35
2022-10-10T14:57:07.691Z,6.97
2022-10-10T14:59:46.537Z,6.93
2022-10-10T15:02:21.894Z,6.43
2022-10-10T15:04:49.596Z,6.57
2022-10-10T15:07:17.764Z,6.93
2022-10-10T15:10:17.667Z,6.72
2022-10-10T15:12:36.972Z,6.70
2022-10-10T15:15:06.266Z,7.13
2022-10-10T15:17:36.143Z,7.30
2022-10-10T15:20:06.498Z,7.43
2022-10-10T15:22:33.879Z,7.20
2022-10-10T15:25:01.213Z,7.32
2022-10-10T15:27:28.355Z,7.32
2022-10-10T15:29:55.823Z,7.53
2022-10-10T15:32:22.963Z,7.53
2022-10-10T15:34:51.407Z,7.82
2022-10-10T15:37:19.121Z,7.43
2022-10-10T15:39:46.239Z,7.78
2022-10-10T15:42:19.939Z,8.55
2022-10-10T15:44:50.433Z,7.75
2022-10-10T15:47:18.530Z,7.80
2022-10-10T15:49:45.584Z,8.35
2022-10-10T15:52:13.040Z,8.20
2022-10-10T15:54:40.071Z,8.55
2022-10-10T15:57:07.597Z,8.60
2022-10-10T15:59:36.862Z,7.95
2022-10-10T16:02:06.340Z,8.38
2022-10-10T16:04:33.673Z,8.75
2022-10-10T16:07:24.240Z,8.70
2022-10-10T16:09:47.420Z,8.85
2022-10-10T16:12:14.336Z,10.15
2022-10-10T16:14:41.255Z,9.00
2022-10-10T16:17:08.178Z,9.07
2022-10-10T16:19:35.130Z,8.88
2022-10-10T16:22:02.048Z,12.35
2022-10-10T16:24:28.973Z,8.88
2022-10-10T16:26:56.218Z,10.05
2022-10-10T16:29:23.126Z,9.65
2022-10-10T16:31:49.994Z,9.30
2022-10-10T16:34:17.430Z,8.90
2022-10-10T16:36:44.555Z,9.43
2022-10-10T16:39:12.768Z,9.85
2022-10-10T16:41:48.790Z,10.43
2022-10-10T16:44:17.617Z,10.45
2022-10-10T16:46:44.881Z,10.07
2022-10-10T16:49:20.582Z,11.30
2022-10-10T16:51:47.481Z,11.65
2022-10-10T16:54:14.454Z,11.77
2022-10-10T16:56:41.915Z,10.80
2022-10-10T16:59:09.142Z,11.73
2022-10-10T17:01:36.289Z,11.63
2022-10-10T17:04:03.877Z,10.98
2022-10-10T17:06:37.355Z,9.88
2022-10-10T17:09:07.936Z,9.75
2022-10-10T17:11:35.847Z,49.20
2022-10-10T17:14:03.815Z,65.18
2022-10-10T17:19:18.119Z,9.70
2022-10-10T17:21:45.042Z,9.07
2022-10-10T17:24:11.974Z,12.95
2022-10-10T17:26:38.892Z,9.98
2022-10-10T17:29:05.814Z,9.52
2022-10-10T17:31:32.819Z,9.73
2022-10-10T17:33:59.843Z,8.50
2022-10-10T17:36:28.145Z,12.52
2022-10-10T17:38:56.375Z,9.70
2022-10-10T17:41:24.135Z,10.20
2022-10-10T17:43:51.442Z,8.57
2022-10-10T17:46:41.452Z,12.98
2022-10-10T17:49:11.058Z,8.00
2022-10-10T17:51:40.633Z,7.97
2022-10-10T17:54:09.914Z,7.35
2022-10-10T17:56:37.639Z,9.27
2022-10-10T17:59:06.678Z,8.93
2022-10-10T18:01:36.015Z,7.93
2022-10-10T18:04:04.323Z,7.85
2022-10-10T18:06:33.758Z,8.65
2022-10-10T18:09:00.980Z,9.55
2022-10-10T18:11:31.807Z,9.23
2022-10-10T18:14:02.131Z,8.25
2022-10-10T18:16:36.155Z,9.45
2022-10-10T18:19:08.040Z,7.85
2022-10-10T18:21:35.673Z,7.70
2022-10-10T18:24:02.891Z,7.82
2022-10-10T18:26:31.300Z,8.43
2022-10-10T18:28:59.506Z,8.20
2022-10-10T18:31:34.264Z,7.80
2022-10-10T18:34:03.413Z,7.47
2022-10-10T18:36:34.153Z,7.80
2022-10-10T18:39:06.204Z,8.13
2022-10-10T18:41:36.354Z,7.25
2022-10-10T18:44:11.605Z,6.75
2022-10-10T18:46:39.856Z,9.00
2022-10-10T18:49:11.697Z,7.70
2022-10-10T18:51:41.399Z,7.40
2022-10-10T18:54:11.368Z,7.65
2022-10-10T18:56:41.335Z,7.45
2022-10-10T18:59:17.438Z,8.23
2022-10-10T19:01:46.622Z,7.00
2022-10-10T19:04:16.158Z,7.40
2022-10-10T19:06:44.588Z,8.07
2022-10-10T19:09:15.345Z,7.38
2022-10-10T19:11:45.656Z,6.53
2022-10-10T19:14:18.148Z,6.95
2022-10-10T19:16:47.616Z,7.68
2022-10-10T19:19:18.638Z,6.72
2022-10-10T19:21:48.494Z,6.55
2022-10-10T19:24:20.810Z,6.97
2022-10-10T19:26:55.895Z,6.90
2022-10-10T19:29:25.788Z,7.53
2022-10-10T19:31:53.276Z,7.25
2022-10-10T19:34:20.655Z,6.88
2022-10-10T19:36:47.853Z,7.40
2022-10-10T19:39:14.868Z,8.10
2022-10-10T19:41:41.778Z,11.73
2022-10-10T19:44:09.058Z,6.72
2022-10-10T19:46:37.343Z,12.68
2022-10-10T19:49:04.955Z,7.40
2022-10-10T19:51:31.872Z,7.50
2022-10-10T19:53:58.970Z,10.23
2022-10-10T19:56:26.566Z,7.38
2022-10-10T19:58:59.812Z,9.30
2022-10-10T20:01:30.302Z,7.20
2022-10-10T20:03:58.247Z,7.10
2022-10-10T20:06:27.155Z,6.97
2022-10-10T20:08:54.666Z,8.63
2022-10-10T20:11:23.346Z,9.43
2022-10-10T20:13:53.172Z,8.00
2022-10-10T20:16:21.824Z,9.25
2022-10-10T20:18:48.733Z,9.20
2022-10-10T20:21:32.655Z,8.20
2022-10-10T20:24:06.012Z,9.63
2022-10-10T20:26:33.329Z,10.05
2022-10-10T20:29:01.112Z,8.77
2022-10-10T20:31:32.462Z,7.93
2022-10-10T20:34:01.015Z,6.82
2022-10-10T20:36:30.910Z,7.00
2022-10-10T20:39:04.971Z,6.70
2022-10-10T20:41:34.789Z,7.47
2022-10-10T20:44:04.813Z,7.30
2022-10-10T20:46:38.014Z,6.30
2022-10-10T20:49:11.480Z,6.40
2022-10-10T21:03:41.683Z,8.32
2022-10-10T21:06:25.733Z,13.52
2022-10-10T21:08:54.036Z,11.30
2022-10-10T21:11:22.828Z,8.13
2022-10-10T21:13:56.649Z,11.15
2022-10-10T21:16:42.142Z,11.30
2022-10-10T21:19:11.710Z,13.98
2022-10-10T21:21:39.334Z,13.05
2022-10-10T21:24:11.076Z,8.70
2022-10-10T21:26:40.244Z,8.93
2022-10-10T21:29:07.388Z,7.05
2022-10-10T21:31:38.228Z,7.38
2022-10-10T21:34:11.048Z,7.72
2022-10-10T21:36:38.039Z,8.80
2022-10-10T21:39:08.749Z,9.18
2022-10-10T21:41:37.137Z,9.63
2022-10-10T21:44:04.391Z,8.75
2022-10-10T21:46:36.866Z,9.90
2022-10-10T21:49:08.473Z,9.80
2022-10-10T21:51:42.473Z,10.50
2022-10-10T21:54:10.712Z,9.80
2022-10-10T21:56:38.581Z,9.70
2022-10-10T21:59:06.620Z,10.10
2022-10-10T22:01:34.068Z,10.13
2022-10-10T22:04:02.694Z,8.48
2022-10-10T22:06:30.796Z,10.18
2022-10-10T22:09:00.790Z,9.07
2022-10-10T22:11:29.901Z,11.02
2022-10-10T22:13:57.008Z,9.18
2022-10-10T22:16:24.271Z,9.43
2022-10-10T22:18:58.641Z,11.95
2022-10-10T22:21:30.557Z,11.23
2022-10-10T22:24:01.307Z,10.57
2022-10-10T22:26:28.926Z,9.88
2022-10-10T22:28:55.889Z,10.15
2022-10-10T22:31:22.868Z,10.82
2022-10-10T22:33:49.806Z,9.68
2022-10-10T22:36:17.083Z,8.90
2022-10-10T22:38:45.593Z,8.57
2022-10-10T22:41:13.960Z,8.68
2022-10-10T22:43:42.001Z,8.40
2022-10-10T22:46:09.583Z,10.75
2022-10-10T22:48:37.314Z,10.48
2022-10-10T22:51:12.856Z,10.02
2022-10-10T22:53:45.588Z,13.07
2022-10-10T22:56:17.517Z,10.13
2022-10-10T22:58:44.961Z,8.88
2022-10-10T23:01:17.845Z,10.93
2022-10-10T23:03:45.256Z,8.88
2022-10-10T23:06:12.689Z,9.52
2022-10-10T23:08:39.889Z,8.90
2022-10-10T23:11:07.180Z,8.90
2022-10-10T23:13:34.196Z,8.88
2022-10-10T23:16:01.628Z,9.10
2022-10-10T23:18:29.636Z,9.48
2022-10-10T23:20:57.068Z,9.82
2022-10-10T23:23:24.788Z,9.43
2022-10-10T23:25:52.172Z,9.32
2022-10-10T23:28:19.639Z,9.43
2022-10-10T23:30:48.934Z,9.02
2022-10-10T23:33:17.225Z,9.32
2022-10-10T23:35:44.535Z,9.50
2022-10-10T23:38:11.550Z,9.00
2022-10-10T23:40:38.465Z,9.55
2022-10-10T23:43:07.354Z,9.32
2022-10-10T23:45:34.405Z,9.30
2022-10-10T23:48:01.358Z,9.70
2022-10-10T23:50:29.244Z,10.18
2022-10-10T23:52:56.132Z,9.63
2022-10-10T23:55:23.092Z,9.35
2022-10-10T23:57:49.995Z,9.88
